createdAt,value
2023-03-21T00:01:29.265Z,3.50
2023-03-21T00:03:55.424Z,3.70
2023-03-21T00:06:22.204Z,3.60
2023-03-21T00:08:48.440Z,3.73
2023-03-21T00:11:14.951Z,4.60
2023-03-21T00:13:42.766Z,3.60
2023-03-21T00:16:20.336Z,3.63
2023-03-21T00:18:51.756Z,4.47
2023-03-21T00:21:44.227Z,4.17
2023-03-21T00:24:07.264Z,3.80
2023-03-21T00:26:33.853Z,3.80
2023-03-21T00:28:59.949Z,4.00
2023-03-21T00:31:26.524Z,4.20
2023-03-21T00:33:52.621Z,3.93
2023-03-21T00:36:18.886Z,4.30
2023-03-21T00:38:45.289Z,3.90
2023-03-21T00:41:23.698Z,4.13
2023-03-21T00:44:00.039Z,3.67
2023-03-21T00:46:30.117Z,4.10
2023-03-21T00:49:02.850Z,3.73
2023-03-21T00:51:29.809Z,4.20
2023-03-21T00:53:57.622Z,3.60
2023-03-21T00:56:23.876Z,4.40
2023-03-21T00:58:50.535Z,3.90
2023-03-21T01:01:17.096Z,4.23
2023-03-21T01:03:50.027Z,4.47
2023-03-21T01:06:18.675Z,4.13
2023-03-21T01:08:53.817Z,4.00
2023-03-21T01:11:23.893Z,3.73
2023-03-21T01:13:56.102Z,3.50
2023-03-21T01:16:28.217Z,4.00
2023-03-21T01:18:55.383Z,4.00
2023-03-21T01:21:21.484Z,3.90
2023-03-21T01:23:47.822Z,3.80
2023-03-21T01:26:14.988Z,4.07
2023-03-21T01:28:42.150Z,3.60
2023-03-21T01:31:09.092Z,4.20
2023-03-21T01:33:35.488Z,3.27
2023-03-21T01:36:12.173Z,3.37
2023-03-21T01:38:40.794Z,3.37
2023-03-21T01:41:18.787Z,3.60
2023-03-21T01:43:45.670Z,4.00
2023-03-21T01:46:32.227Z,3.43
2023-03-21T01:49:12.423Z,3.37
2023-03-21T01:52:06.586Z,3.80
2023-03-21T01:54:39.398Z,3.60
2023-03-21T01:57:09.221Z,3.50
2023-03-21T01:59:43.642Z,3.50
2023-03-21T02:02:22.570Z,3.33
2023-03-21T02:04:50.450Z,3.80
2023-03-21T02:07:18.848Z,3.30
2023-03-21T02:09:47.028Z,3.40
2023-03-21T02:12:15.491Z,3.20
2023-03-21T02:14:42.144Z,3.80
2023-03-21T02:17:14.390Z,3.30
2023-03-21T02:19:53.348Z,3.10
2023-03-21T02:22:36.003Z,3.73
2023-03-21T02:25:26.284Z,3.33
2023-03-21T02:27:57.995Z,3.40
2023-03-21T02:30:51.737Z,2.70
2023-03-21T02:33:40.681Z,3.17
2023-03-21T02:36:17.078Z,3.33
2023-03-21T02:38:51.927Z,3.37
2023-03-21T02:41:48.993Z,2.50
2023-03-21T02:44:22.940Z,3.30
2023-03-21T02:47:05.421Z,2.77
2023-03-21T02:49:37.649Z,3.77
2023-03-21T02:52:14.455Z,3.63
2023-03-21T02:54:48.342Z,3.23
2023-03-21T02:57:17.753Z,3.07
2023-03-21T02:59:54.353Z,2.83
2023-03-21T03:02:26.917Z,3.00
2023-03-21T03:04:53.082Z,3.63
2023-03-21T03:07:36.224Z,3.20
2023-03-21T03:10:14.879Z,3.37
2023-03-21T03:12:52.007Z,3.27
2023-03-21T03:15:27.754Z,3.80
2023-03-21T03:18:02.681Z,3.40
2023-03-21T03:20:52.174Z,3.30
2023-03-21T03:23:42.755Z,3.50
2023-03-21T03:26:14.756Z,3.30
2023-03-21T03:28:45.403Z,3.07
2023-03-21T03:31:14.064Z,3.30
2023-03-21T03:33:43.757Z,3.70
2023-03-21T03:36:21.364Z,3.80
2023-03-21T03:38:51.109Z,3.70
2023-03-21T03:41:20.365Z,3.20
2023-03-21T03:43:51.551Z,3.07
2023-03-21T03:46:24.798Z,3.60
2023-03-21T03:48:55.070Z,3.80
2023-03-21T03:51:28.633Z,3.80
2023-03-21T03:54:01.065Z,3.50
2023-03-21T03:56:28.172Z,3.43
2023-03-21T03:58:55.978Z,3.97
2023-03-21T04:01:22.102Z,3.97
2023-03-21T04:03:52.997Z,3.40
2023-03-21T04:06:27.197Z,3.67
2023-03-21T04:08:53.289Z,3.20
2023-03-21T04:11:19.543Z,3.67
2023-03-21T04:13:45.868Z,3.53
2023-03-21T04:16:12.225Z,3.53
2023-03-21T04:18:41.749Z,3.67
2023-03-21T04:21:12.364Z,3.80
2023-03-21T04:23:39.525Z,3.10
2023-03-21T04:26:06.147Z,3.80
2023-03-21T04:28:33.293Z,3.40
2023-03-21T04:31:05.048Z,3.40
2023-03-21T04:33:37.679Z,4.40
2023-03-21T04:36:05.908Z,3.30
2023-03-21T04:38:33.151Z,3.40
2023-03-21T04:41:00.068Z,3.17
2023-03-21T04:43:27.710Z,4.30
2023-03-21T04:45:55.033Z,3.50
2023-03-21T04:48:23.831Z,3.10
2023-03-21T04:50:50.602Z,3.90
2023-03-21T04:53:17.393Z,3.17
2023-03-21T04:55:44.467Z,3.23
2023-03-21T04:58:10.563Z,3.67
2023-03-21T05:00:38.375Z,3.60
2023-03-21T05:03:08.392Z,3.33
2023-03-21T05:05:37.744Z,3.53
2023-03-21T05:08:05.152Z,3.80
2023-03-21T05:10:31.709Z,3.93
2023-03-21T05:12:57.821Z,3.43
2023-03-21T05:15:23.924Z,3.77
2023-03-21T05:17:50.043Z,4.17
2023-03-21T05:20:17.037Z,3.90
2023-03-21T05:22:45.372Z,3.70
2023-03-21T05:25:12.536Z,3.90
2023-03-21T05:27:44.698Z,4.03
2023-03-21T05:30:13.578Z,3.60
2023-03-21T05:32:40.071Z,4.17
2023-03-21T05:35:06.775Z,4.00
2023-03-21T05:37:32.872Z,3.53
2023-03-21T05:39:59.002Z,3.50
2023-03-21T05:42:25.670Z,3.80
2023-03-21T05:44:51.780Z,3.50
2023-03-21T05:47:18.334Z,3.70
2023-03-21T05:49:44.644Z,3.40
2023-03-21T05:52:11.219Z,3.77
2023-03-21T05:54:37.388Z,3.90
2023-03-21T05:57:04.177Z,3.90
2023-03-21T05:59:30.452Z,3.70
2023-03-21T06:01:56.531Z,3.80
2023-03-21T06:04:22.650Z,4.00
2023-03-21T06:06:50.199Z,3.27
2023-03-21T06:09:16.278Z,4.17
2023-03-21T06:11:47.060Z,4.20
2023-03-21T06:14:13.207Z,3.63
2023-03-21T06:16:39.557Z,3.37
2023-03-21T06:19:05.683Z,3.90
2023-03-21T06:21:31.811Z,4.30
2023-03-21T06:23:57.938Z,4.03
2023-03-21T06:26:24.036Z,4.00
2023-03-21T06:28:50.370Z,3.30
2023-03-21T06:31:16.530Z,3.63
2023-03-21T06:33:42.740Z,4.17
2023-03-21T06:36:09.267Z,3.90
2023-03-21T06:38:37.356Z,4.23
2023-03-21T06:41:05.050Z,3.87
2023-03-21T06:43:31.403Z,3.73
2023-03-21T06:45:57.986Z,3.47
2023-03-21T06:48:24.220Z,3.67
2023-03-21T06:50:51.118Z,4.03
2023-03-21T06:53:19.918Z,3.67
2023-03-21T06:55:53.339Z,3.40
2023-03-21T06:58:20.302Z,4.10
2023-03-21T07:00:46.556Z,3.70
2023-03-21T07:03:13.054Z,4.27
2023-03-21T07:05:40.313Z,4.40
2023-03-21T07:08:09.961Z,3.90
2023-03-21T07:10:45.340Z,4.47
2023-03-21T07:13:12.652Z,4.30
2023-03-21T07:15:39.169Z,4.50
2023-03-21T07:18:05.884Z,3.63
2023-03-21T07:20:32.415Z,4.00
2023-03-21T07:22:58.489Z,4.53
2023-03-21T07:25:24.653Z,4.83
2023-03-21T07:27:50.732Z,4.67
2023-03-21T07:30:17.135Z,4.13
2023-03-21T07:32:44.906Z,4.20
2023-03-21T07:35:13.045Z,4.43
2023-03-21T07:37:40.066Z,4.80
2023-03-21T07:40:10.021Z,4.40
2023-03-21T07:42:37.035Z,4.67
2023-03-21T07:45:04.441Z,5.00
2023-03-21T07:47:31.178Z,4.80
2023-03-21T07:49:57.942Z,4.40
2023-03-21T07:52:24.243Z,4.60
2023-03-21T07:54:50.322Z,5.30
2023-03-21T07:57:17.020Z,4.80
2023-03-21T07:59:43.406Z,4.80
2023-03-21T08:02:14.443Z,5.20
2023-03-21T08:04:40.543Z,5.00
2023-03-21T08:07:06.714Z,4.70
2023-03-21T08:09:32.790Z,4.70
2023-03-21T08:11:58.853Z,5.47
2023-03-21T08:14:24.949Z,5.40
2023-03-21T08:16:51.286Z,5.90
2023-03-21T08:19:20.009Z,5.03
2023-03-21T08:21:46.375Z,5.77
2023-03-21T08:24:12.419Z,5.60
2023-03-21T08:26:38.661Z,5.93
2023-03-21T08:29:05.383Z,5.33
2023-03-21T08:31:31.492Z,5.77
2023-03-21T08:33:57.592Z,6.20
2023-03-21T08:36:23.921Z,5.10
2023-03-21T08:38:56.233Z,5.60
2023-03-21T08:41:24.597Z,5.60
2023-03-21T08:43:50.741Z,4.60
2023-03-21T08:46:16.864Z,5.73
2023-03-21T08:48:42.969Z,5.10
2023-03-21T08:51:09.097Z,6.07
2023-03-21T08:53:35.272Z,5.80
2023-03-21T08:56:01.384Z,5.30
2023-03-21T08:58:27.459Z,5.97
2023-03-21T09:00:53.520Z,5.50
2023-03-21T09:03:19.694Z,5.57
2023-03-21T09:05:45.946Z,5.33
2023-03-21T09:08:14.872Z,5.37
2023-03-21T09:10:40.980Z,5.10
2023-03-21T09:13:07.164Z,5.47
2023-03-21T09:15:34.537Z,5.70
2023-03-21T09:18:12.240Z,5.03
2023-03-21T09:20:39.250Z,5.60
2023-03-21T09:23:05.337Z,6.00
2023-03-21T09:25:31.974Z,5.97
2023-03-21T09:27:59.566Z,5.87
2023-03-21T09:30:26.527Z,5.87
2023-03-21T09:32:54.837Z,6.97
2023-03-21T09:35:21.319Z,6.20
2023-03-21T09:37:48.289Z,6.63
2023-03-21T09:40:18.937Z,6.60
2023-03-21T09:43:05.238Z,5.77
2023-03-21T09:45:49.672Z,6.33
2023-03-21T09:48:21.786Z,5.83
2023-03-21T09:50:48.433Z,5.47
2023-03-21T09:53:36.374Z,6.90
2023-03-21T09:56:02.903Z,6.53
2023-03-21T09:58:36.448Z,6.20
2023-03-21T10:01:10.500Z,7.03
2023-03-21T10:03:37.165Z,6.13
2023-03-21T10:06:07.827Z,6.40
2023-03-21T10:08:36.753Z,6.47
2023-03-21T10:11:20.968Z,6.27
2023-03-21T10:14:13.732Z,6.40
2023-03-21T10:16:42.975Z,6.40
2023-03-21T10:19:14.642Z,6.23
2023-03-21T10:22:00.276Z,6.03
2023-03-21T10:24:29.264Z,6.20
2023-03-21T10:26:55.743Z,6.27
2023-03-21T10:29:26.578Z,6.70
2023-03-21T10:31:53.881Z,6.80
2023-03-21T10:34:30.477Z,6.07
2023-03-21T10:36:56.722Z,6.40
2023-03-21T10:39:34.059Z,7.63
2023-03-21T10:42:00.329Z,6.43
2023-03-21T10:44:31.315Z,6.80
2023-03-21T10:47:08.546Z,6.85
2023-03-21T10:50:05.860Z,6.50
2023-03-21T10:52:27.318Z,5.97
2023-03-21T10:55:08.757Z,6.37
2023-03-21T10:57:37.305Z,6.40
2023-03-21T11:00:16.399Z,6.83
2023-03-21T11:02:47.604Z,6.50
2023-03-21T11:05:35.959Z,6.03
2023-03-21T11:08:10.445Z,6.97
2023-03-21T11:10:38.379Z,6.50
2023-03-21T11:13:17.069Z,6.40
2023-03-21T11:15:52.411Z,6.93
2023-03-21T11:18:24.657Z,6.30
2023-03-21T11:20:54.381Z,5.70
2023-03-21T11:23:21.230Z,5.87
2023-03-21T11:25:49.359Z,5.80
2023-03-21T11:28:21.684Z,6.20
2023-03-21T11:30:55.980Z,4.60
2023-03-21T11:33:27.057Z,6.10
2023-03-21T11:36:05.381Z,4.67
2023-03-21T11:38:36.401Z,5.97
2023-03-21T11:41:03.327Z,5.30
2023-03-21T11:43:36.205Z,5.20
2023-03-21T11:46:06.562Z,4.80
2023-03-21T11:48:38.460Z,5.00
2023-03-21T11:51:18.657Z,5.30
2023-03-21T11:53:54.365Z,6.00
2023-03-21T11:56:40.608Z,6.23
2023-03-21T11:59:28.087Z,6.33
2023-03-21T12:02:06.298Z,6.77
2023-03-21T12:04:32.360Z,6.10
2023-03-21T12:07:04.654Z,6.30
2023-03-21T12:09:37.013Z,7.40
2023-03-21T12:12:09.213Z,6.63
2023-03-21T12:14:54.692Z,6.17
2023-03-21T12:17:33.794Z,7.20
2023-03-21T12:20:37.620Z,6.80
2023-03-21T12:23:28.050Z,7.23
2023-03-21T12:26:11.664Z,7.03
2023-03-21T12:28:40.794Z,8.17
2023-03-21T12:31:20.359Z,6.30
2023-03-21T12:34:05.083Z,6.33
2023-03-21T12:36:40.674Z,6.63
2023-03-21T12:39:26.078Z,7.10
2023-03-21T12:42:17.988Z,7.60
2023-03-21T12:45:15.401Z,7.30
2023-03-21T12:47:44.572Z,7.07
2023-03-21T12:50:19.228Z,7.70
2023-03-21T12:52:50.175Z,7.37
2023-03-21T12:55:20.847Z,8.00
2023-03-21T12:57:57.472Z,9.13
2023-03-21T13:00:30.611Z,8.43
2023-03-21T13:03:11.372Z,8.23
2023-03-21T13:05:46.494Z,7.33
2023-03-21T13:08:29.724Z,8.63
2023-03-21T13:10:56.353Z,6.93
2023-03-21T13:13:32.622Z,6.47
2023-03-21T13:16:17.673Z,6.73
2023-03-21T13:18:49.422Z,6.57
2023-03-21T13:21:37.437Z,7.70
2023-03-21T13:24:20.028Z,7.47
2023-03-21T13:26:51.404Z,6.90
2023-03-21T13:29:43.626Z,7.37
2023-03-21T13:32:28.897Z,6.80
2023-03-21T13:35:00.868Z,6.90
2023-03-21T13:37:34.011Z,8.10
2023-03-21T13:40:10.063Z,6.20
2023-03-21T13:42:43.343Z,6.20
2023-03-21T13:45:11.685Z,6.10
2023-03-21T13:48:00.325Z,6.07
2023-03-21T13:50:30.045Z,6.43
2023-03-21T13:53:14.676Z,6.07
2023-03-21T13:55:43.799Z,5.77
2023-03-21T13:58:31.663Z,6.20
2023-03-21T14:01:31.585Z,6.60
2023-03-21T14:04:18.131Z,6.53
2023-03-21T14:07:10.724Z,6.50
2023-03-21T14:09:43.083Z,6.67
2023-03-21T14:12:17.262Z,7.13
2023-03-21T14:14:49.992Z,6.83
2023-03-21T14:17:27.500Z,7.53
2023-03-21T14:19:56.263Z,6.90
2023-03-21T14:22:22.517Z,7.40
2023-03-21T14:24:59.607Z,8.83
2023-03-21T14:27:30.000Z,8.00
2023-03-21T14:29:57.711Z,8.10
2023-03-21T14:32:25.957Z,9.10
2023-03-21T14:34:54.057Z,9.20
2023-03-21T14:37:47.008Z,8.10
2023-03-21T14:40:26.703Z,9.90
2023-03-21T14:42:53.142Z,10.07
2023-03-21T14:45:25.212Z,9.80
2023-03-21T14:48:00.640Z,11.07
2023-03-21T14:50:40.613Z,10.53
2023-03-21T14:53:11.841Z,10.43
2023-03-21T14:55:55.164Z,10.03
2023-03-21T14:58:21.320Z,11.90
2023-03-21T15:00:51.273Z,11.37
2023-03-21T15:03:19.347Z,11.20
2023-03-21T15:05:46.076Z,11.37
2023-03-21T15:08:20.280Z,12.23
2023-03-21T15:11:08.335Z,11.23
2023-03-21T15:13:49.561Z,13.10
2023-03-21T15:16:15.948Z,11.30
2023-03-21T15:18:42.876Z,12.73
2023-03-21T15:21:12.676Z,13.80
2023-03-21T15:23:50.626Z,12.80
2023-03-21T15:26:18.743Z,12.10
2023-03-21T15:28:47.003Z,12.27
2023-03-21T15:31:17.163Z,12.60
2023-03-21T15:33:51.815Z,12.40
2023-03-21T15:36:24.824Z,13.23
2023-03-21T15:38:51.055Z,13.10
2023-03-21T15:41:20.172Z,13.40
2023-03-21T15:44:01.856Z,11.87
2023-03-21T15:46:47.428Z,12.80
2023-03-21T15:49:16.320Z,12.40
2023-03-21T15:51:55.471Z,12.80
2023-03-21T15:54:29.312Z,12.00
2023-03-21T15:57:00.619Z,11.03
2023-03-21T15:59:30.163Z,11.17
2023-03-21T16:01:56.348Z,12.00
2023-03-21T16:04:23.670Z,10.30
2023-03-21T16:06:59.426Z,9.70
2023-03-21T16:09:25.876Z,10.50
2023-03-21T16:11:56.726Z,9.60
2023-03-21T16:14:27.063Z,9.40
2023-03-21T16:16:53.345Z,10.10
2023-03-21T16:19:19.451Z,8.80
2023-03-21T16:21:46.146Z,8.70
2023-03-21T16:24:12.776Z,10.03
2023-03-21T16:26:45.267Z,7.80
2023-03-21T16:29:15.167Z,22.50
2023-03-21T16:31:42.161Z,8.13
2023-03-21T16:34:08.478Z,6.57
2023-03-21T16:36:37.067Z,6.30
2023-03-21T16:39:25.575Z,6.50
2023-03-21T16:41:51.955Z,7.70
2023-03-21T16:44:19.057Z,7.77
2023-03-21T16:46:46.554Z,7.67
2023-03-21T16:49:23.122Z,6.07
2023-03-21T16:51:49.443Z,6.30
2023-03-21T16:54:15.712Z,7.17
2023-03-21T16:56:46.257Z,6.20
2023-03-21T16:59:13.502Z,6.60
2023-03-21T17:01:40.740Z,6.30
2023-03-21T17:04:07.920Z,6.43
2023-03-21T17:06:41.259Z,5.80
2023-03-21T17:09:10.159Z,6.07
2023-03-21T17:11:40.723Z,5.97
2023-03-21T17:14:08.308Z,5.90
2023-03-21T17:16:34.651Z,6.17
2023-03-21T17:19:01.907Z,6.13
2023-03-21T17:21:28.565Z,5.57
2023-03-21T17:23:55.374Z,5.17
2023-03-21T17:26:27.227Z,4.90
2023-03-21T17:28:56.080Z,5.13
2023-03-21T17:31:24.149Z,5.40
2023-03-21T17:33:50.237Z,5.80
2023-03-21T17:36:20.616Z,4.90
2023-03-21T17:38:47.027Z,4.97
2023-03-21T17:41:15.611Z,5.37
2023-03-21T17:43:42.194Z,5.60
2023-03-21T17:46:13.383Z,5.03
2023-03-21T17:48:40.006Z,7.10
2023-03-21T17:51:06.543Z,8.37
2023-03-21T17:53:32.588Z,6.80
2023-03-21T17:55:58.674Z,5.63
2023-03-21T17:58:25.532Z,8.33
2023-03-21T18:00:51.661Z,6.93
2023-03-21T18:03:19.699Z,7.10
2023-03-21T18:05:45.861Z,6.23
2023-03-21T18:08:12.746Z,7.93
2023-03-21T18:10:40.253Z,9.70
2023-03-21T18:13:06.703Z,9.37
2023-03-21T18:15:32.958Z,11.27
2023-03-21T18:17:59.018Z,9.27
2023-03-21T18:20:44.548Z,8.10
2023-03-21T18:23:13.543Z,14.57
2023-03-21T18:25:41.046Z,13.50
2023-03-21T18:28:12.002Z,11.20
2023-03-21T18:31:00.434Z,14.97
2023-03-21T18:33:26.490Z,8.33
2023-03-21T18:35:58.835Z,10.17
2023-03-21T18:38:26.890Z,9.57
2023-03-21T18:40:53.015Z,10.13
2023-03-21T18:46:05.799Z,9.60
2023-03-21T18:48:34.156Z,14.10
2023-03-21T18:51:00.806Z,14.50
2023-03-21T18:53:27.202Z,7.17
2023-03-21T18:55:53.711Z,14.50
2023-03-21T18:58:20.615Z,17.43
2023-03-21T19:00:46.861Z,13.87
2023-03-21T19:03:24.794Z,13.30
2023-03-21T19:05:59.448Z,18.00
2023-03-21T19:08:25.760Z,20.57
2023-03-21T19:10:52.153Z,20.50
2023-03-21T19:13:18.254Z,22.90
2023-03-21T19:15:44.421Z,18.63
2023-03-21T19:18:49.536Z,21.50
2023-03-21T19:21:00.142Z,16.00
2023-03-21T19:23:39.851Z,15.37
2023-03-21T19:26:12.874Z,15.57
2023-03-21T19:28:39.003Z,13.80
2023-03-21T19:31:06.655Z,14.00
2023-03-21T19:33:33.505Z,16.03
2023-03-21T19:36:15.289Z,20.97
2023-03-21T19:38:43.870Z,16.00
2023-03-21T19:41:09.950Z,18.60
2023-03-21T19:43:36.065Z,15.40
2023-03-21T19:46:02.369Z,14.93
2023-03-21T19:48:28.939Z,15.60
2023-03-21T19:53:42.183Z,15.40
2023-03-21T19:56:20.715Z,17.43
2023-03-21T19:58:49.042Z,14.27
2023-03-21T20:01:15.479Z,15.30
2023-03-21T20:03:43.564Z,15.50
2023-03-21T20:06:10.792Z,15.30
2023-03-21T20:09:05.715Z,15.43
2023-03-21T20:11:22.969Z,16.03
2023-03-21T20:13:49.086Z,16.17
2023-03-21T20:16:20.402Z,14.80
2023-03-21T20:18:46.708Z,16.27
2023-03-21T20:21:18.046Z,16.17
2023-03-21T20:23:48.513Z,14.73
2023-03-21T20:26:15.053Z,15.27
2023-03-21T20:28:55.985Z,14.10
2023-03-21T20:31:27.538Z,15.83
2023-03-21T20:33:53.672Z,15.30
2023-03-21T20:36:38.710Z,15.57
2023-03-21T20:39:06.403Z,16.13
2023-03-21T20:41:32.454Z,14.97
2023-03-21T20:44:41.659Z,15.30
2023-03-21T20:46:47.029Z,17.53
2023-03-21T20:49:13.533Z,16.37
2023-03-21T20:54:25.737Z,15.53
2023-03-21T20:56:51.877Z,15.90
2023-03-21T20:59:26.549Z,15.57
2023-03-21T21:01:54.990Z,14.60
2023-03-21T21:04:21.172Z,15.17
2023-03-21T21:06:47.575Z,15.70
2023-03-21T21:09:13.821Z,14.73
2023-03-21T21:12:05.642Z,15.63
2023-03-21T21:14:25.956Z,14.93
2023-03-21T21:16:52.056Z,15.23
2023-03-21T21:19:20.890Z,14.90
2023-03-21T21:21:47.018Z,16.47
2023-03-21T21:24:14.629Z,15.40
2023-03-21T21:26:45.400Z,16.73
2023-03-21T21:29:20.646Z,14.70
2023-03-21T21:31:49.214Z,16.67
2023-03-21T21:34:18.028Z,15.40
2023-03-21T21:36:44.962Z,14.93
2023-03-21T21:39:37.109Z,15.63
2023-03-21T21:42:03.716Z,14.53
2023-03-21T21:44:30.488Z,14.53
2023-03-21T21:46:57.157Z,17.13
2023-03-21T21:49:23.471Z,15.87
2023-03-21T21:51:49.528Z,16.20
2023-03-21T21:54:17.409Z,14.87
2023-03-21T21:56:47.520Z,15.70
2023-03-21T21:59:17.504Z,16.00
2023-03-21T22:01:43.553Z,16.43
2023-03-21T22:04:10.607Z,16.20
2023-03-21T22:06:37.070Z,16.23
2023-03-21T22:09:06.200Z,16.93
2023-03-21T22:11:32.932Z,16.50
2023-03-21T22:13:59.030Z,16.57
2023-03-21T22:16:25.501Z,16.00
2023-03-21T22:18:51.593Z,17.23
2023-03-21T22:21:17.702Z,16.70
2023-03-21T22:23:57.153Z,17.37
2023-03-21T22:26:23.453Z,16.07
2023-03-21T22:28:49.713Z,15.73
2023-03-21T22:31:16.199Z,17.47
2023-03-21T22:33:43.081Z,16.77
2023-03-21T22:36:10.036Z,16.60
2023-03-21T22:38:37.293Z,16.17
2023-03-21T22:41:05.228Z,16.80
2023-03-21T22:43:33.367Z,16.60
2023-03-21T22:46:01.285Z,17.00
2023-03-21T22:48:30.978Z,17.33
2023-03-21T22:50:58.196Z,17.60
2023-03-21T22:53:24.345Z,17.60
2023-03-21T22:55:50.565Z,18.67
2023-03-21T22:58:17.054Z,17.50
2023-03-21T23:00:43.213Z,17.27
2023-03-21T23:03:10.025Z,18.60
2023-03-21T23:05:40.468Z,18.87
2023-03-21T23:08:06.920Z,18.87
2023-03-21T23:10:33.077Z,19.07
2023-03-21T23:12:59.117Z,17.53
2023-03-21T23:15:25.156Z,18.60
2023-03-21T23:17:51.230Z,18.07
2023-03-21T23:20:17.474Z,18.60
2023-03-21T23:22:43.541Z,19.70
2023-03-21T23:25:09.589Z,18.33
2023-03-21T23:27:35.743Z,19.60
2023-03-21T23:30:05.578Z,16.53
2023-03-21T23:32:32.099Z,18.30
2023-03-21T23:34:58.804Z,16.27
2023-03-21T23:37:25.575Z,18.80
2023-03-21T23:39:54.715Z,17.70
2023-03-21T23:42:21.686Z,19.70
2023-03-21T23:44:47.750Z,20.30
2023-03-21T23:47:15.351Z,18.40
2023-03-21T23:49:49.420Z,19.67
2023-03-21T23:52:16.138Z,18.43
2023-03-21T23:54:42.356Z,20.43
2023-03-21T23:57:08.475Z,21.33
2023-03-21T23:59:34.534Z,20.80
